createdAt,value
2023-07-16T00:02:26.997Z,87.48
2023-07-16T00:04:54.230Z,87.34
2023-07-16T00:07:21.361Z,87.63
2023-07-16T00:09:49.230Z,87.99
2023-07-16T00:12:16.483Z,87.69
2023-07-16T00:14:43.699Z,88.09
2023-07-16T00:17:13.250Z,88.03
2023-07-16T00:19:40.400Z,88.13
2023-07-16T00:22:07.611Z,88.39
2023-07-16T00:24:34.808Z,87.86
2023-07-16T00:27:02.005Z,88.51
2023-07-16T00:29:29.302Z,88.75
2023-07-16T00:31:58.307Z,88.51
2023-07-16T00:34:25.571Z,88.71
2023-07-16T00:36:53.313Z,88.79
2023-07-16T00:39:20.960Z,89.18
2023-07-16T00:41:48.354Z,89.30
2023-07-16T00:44:16.071Z,89.13
2023-07-16T00:46:43.641Z,89.06
2023-07-16T00:49:14.711Z,89.61
2023-07-16T00:51:42.473Z,89.32
2023-07-16T00:54:10.423Z,89.46
2023-07-16T00:56:38.614Z,89.62
2023-07-16T05:25:42.304Z,82.16
2023-07-16T05:37:24.713Z,81.45
2023-07-16T05:39:54.345Z,81.57
2023-07-16T05:50:49.357Z,77.41
2023-07-16T06:09:21.319Z,77.10
2023-07-16T06:11:50.003Z,76.83
2023-07-16T06:14:17.462Z,75.59
2023-07-16T06:16:44.852Z,75.23
2023-07-16T06:19:18.497Z,74.29
2023-07-16T06:21:45.642Z,71.74
2023-07-16T06:24:15.878Z,70.92
2023-07-16T06:26:44.841Z,69.91
2023-07-16T06:29:12.012Z,69.43
2023-07-16T06:31:39.532Z,71.62
2023-07-16T06:34:06.723Z,70.14
2023-07-16T06:36:34.483Z,68.79
2023-07-16T06:39:01.921Z,68.74
2023-07-16T06:41:29.997Z,68.64
2023-07-16T06:43:58.942Z,68.34
2023-07-16T06:46:26.070Z,67.62
2023-07-16T06:48:53.269Z,67.42
2023-07-16T06:51:22.230Z,66.95
2023-07-16T06:53:49.523Z,67.73
2023-07-16T06:56:17.023Z,66.86
2023-07-16T06:58:44.491Z,66.12
2023-07-16T07:01:11.606Z,65.69
2023-07-16T07:03:39.061Z,65.77
2023-07-16T07:06:07.237Z,65.13
2023-07-16T07:08:34.290Z,64.61
2023-07-16T07:11:01.474Z,64.18
2023-07-16T07:13:29.340Z,65.09
2023-07-16T07:15:58.354Z,64.72
2023-07-16T07:18:25.569Z,64.72
2023-07-16T07:20:52.753Z,63.30
2023-07-16T07:23:20.018Z,62.60
2023-07-16T07:25:52.576Z,63.79
2023-07-16T07:28:20.673Z,62.33
2023-07-16T07:30:47.888Z,62.28
2023-07-16T07:33:15.093Z,62.48
2023-07-16T07:35:42.869Z,62.66
2023-07-16T07:38:11.958Z,62.36
2023-07-16T07:40:39.496Z,62.64
2023-07-16T07:43:06.651Z,60.78
2023-07-16T07:45:33.751Z,60.41
2023-07-16T07:48:02.036Z,59.89
2023-07-16T07:50:30.633Z,59.43
2023-07-16T07:52:57.736Z,59.54
2023-07-16T07:55:25.301Z,59.44
2023-07-16T07:57:52.570Z,59.20
2023-07-16T08:00:20.250Z,59.67
2023-07-16T08:02:48.384Z,60.97
2023-07-16T08:05:16.094Z,59.90
2023-07-16T08:07:43.368Z,59.38
2023-07-16T08:10:11.064Z,60.08
2023-07-16T08:12:38.435Z,60.42
2023-07-16T08:15:10.402Z,60.43
2023-07-16T08:17:38.126Z,60.29
2023-07-16T08:20:06.903Z,58.60
2023-07-16T08:22:34.111Z,56.86
2023-07-16T08:25:02.038Z,57.18
2023-07-16T08:27:29.219Z,58.64
2023-07-16T08:29:56.381Z,57.83
2023-07-16T08:32:24.006Z,57.17
2023-07-16T08:34:51.168Z,56.78
2023-07-16T08:37:18.530Z,56.29
2023-07-16T08:39:45.639Z,54.79
2023-07-16T08:42:12.707Z,55.91
2023-07-16T08:44:41.241Z,55.66
2023-07-16T08:47:08.734Z,54.97
2023-07-16T08:49:36.009Z,54.64
2023-07-16T08:52:04.291Z,54.89
2023-07-16T08:54:31.434Z,53.76
2023-07-16T08:56:58.759Z,53.97
2023-07-16T08:59:26.195Z,52.86
2023-07-16T09:01:53.337Z,53.67
2023-07-16T09:04:20.424Z,52.75
2023-07-16T09:06:47.648Z,53.24
2023-07-16T09:09:22.674Z,52.91
2023-07-16T09:11:49.929Z,52.08
2023-07-16T09:14:20.163Z,53.00
2023-07-16T09:16:51.592Z,52.26
2023-07-16T09:19:21.403Z,51.33
2023-07-16T09:21:52.576Z,52.34
2023-07-16T09:24:21.855Z,51.37
2023-07-16T09:26:53.153Z,50.55
2023-07-16T09:29:20.905Z,50.23
2023-07-16T09:32:09.190Z,50.64
2023-07-16T09:34:36.412Z,49.23
2023-07-16T09:37:03.981Z,49.29
2023-07-16T09:39:31.577Z,49.98
2023-07-16T09:41:58.775Z,50.06
2023-07-16T09:44:25.903Z,49.58
2023-07-16T09:46:53.056Z,48.34
2023-07-16T09:49:20.414Z,47.54
2023-07-16T09:51:47.679Z,47.76
2023-07-16T09:54:16.542Z,47.24
2023-07-16T09:56:46.899Z,48.08
2023-07-16T09:59:19.303Z,49.06
2023-07-16T10:01:46.552Z,48.21
2023-07-16T10:04:21.011Z,47.58
2023-07-16T10:06:56.789Z,48.05
2023-07-16T10:09:43.116Z,47.49
2023-07-16T10:12:15.690Z,47.16
2023-07-16T10:14:44.506Z,47.63
2023-07-16T10:17:19.373Z,46.79
2023-07-16T10:20:00.327Z,46.49
2023-07-16T10:22:48.031Z,45.62
2023-07-16T10:25:21.467Z,45.20
2023-07-16T10:27:50.584Z,45.96
2023-07-16T10:30:17.839Z,47.26
2023-07-16T10:32:45.186Z,46.11
2023-07-16T10:35:12.667Z,45.85
2023-07-16T10:37:40.230Z,45.42
2023-07-16T10:40:11.246Z,45.33
2023-07-16T10:42:38.375Z,45.36
2023-07-16T10:45:05.946Z,44.83
2023-07-16T10:47:37.716Z,43.85
2023-07-16T10:50:06.637Z,44.20
2023-07-16T10:52:33.777Z,43.32
2023-07-16T10:55:00.926Z,43.85
2023-07-16T10:57:28.763Z,43.97
2023-07-16T10:59:59.050Z,44.87
2023-07-16T11:02:26.552Z,44.79
2023-07-16T11:04:58.947Z,44.39
2023-07-16T11:07:26.057Z,44.16
2023-07-16T11:09:55.214Z,43.48
2023-07-16T11:12:23.850Z,43.39
2023-07-16T11:14:52.256Z,43.56
2023-07-16T11:17:20.377Z,43.65
2023-07-16T11:19:48.841Z,42.48
2023-07-16T11:22:16.221Z,43.18
2023-07-16T11:24:48.114Z,43.33
2023-07-16T11:27:18.738Z,42.95
2023-07-16T11:29:50.294Z,42.79
2023-07-16T11:32:44.108Z,43.12
2023-07-16T11:35:18.439Z,42.27
2023-07-16T11:37:45.985Z,41.81
2023-07-16T11:40:17.356Z,41.33
2023-07-16T11:42:45.296Z,42.11
2023-07-16T11:45:22.439Z,42.11
2023-07-16T11:47:50.405Z,43.63
2023-07-16T11:50:17.713Z,42.85
2023-07-16T11:52:52.758Z,43.35
2023-07-16T11:55:19.909Z,44.07
2023-07-16T11:57:47.029Z,43.94
2023-07-16T12:00:14.483Z,44.39
2023-07-16T12:02:42.914Z,44.25
2023-07-16T12:05:12.317Z,44.30
2023-07-16T12:07:41.060Z,44.26
2023-07-16T12:10:08.651Z,42.66
2023-07-16T12:12:39.690Z,42.92
2023-07-16T12:15:08.663Z,42.97
2023-07-16T12:17:35.979Z,42.58
2023-07-16T12:20:05.627Z,42.32
2023-07-16T12:22:33.494Z,42.38
2023-07-16T12:25:00.851Z,41.74
2023-07-16T12:27:28.144Z,40.83
2023-07-16T12:29:56.214Z,41.77
2023-07-16T12:32:23.323Z,41.48
2023-07-16T12:34:50.633Z,41.88
2023-07-16T12:37:18.340Z,42.63
2023-07-16T12:39:45.422Z,43.42
2023-07-16T12:42:12.572Z,44.01
2023-07-16T12:44:39.803Z,43.64
2023-07-16T12:47:10.108Z,43.08
2023-07-16T12:49:37.456Z,41.27
2023-07-16T12:52:05.045Z,41.28
2023-07-16T12:54:32.516Z,41.13
2023-07-16T12:56:59.709Z,41.20
2023-07-16T12:59:26.870Z,41.24
2023-07-16T13:01:54.005Z,41.79
2023-07-16T13:04:21.120Z,41.69
2023-07-16T13:06:49.810Z,42.10
2023-07-16T13:09:17.745Z,41.78
2023-07-16T13:11:45.674Z,42.98
2023-07-16T13:14:13.251Z,41.95
2023-07-16T13:16:40.354Z,41.31
2023-07-16T13:19:07.645Z,40.81
2023-07-16T13:21:35.279Z,40.88
2023-07-16T13:24:02.484Z,41.54
2023-07-16T13:26:29.634Z,42.75
2023-07-16T13:28:56.849Z,43.39
2023-07-16T13:31:24.113Z,42.52
2023-07-16T13:33:51.231Z,42.25
2023-07-16T13:36:18.620Z,41.60
2023-07-16T13:38:49.222Z,41.37
2023-07-16T13:41:16.419Z,42.39
2023-07-16T13:43:43.606Z,42.86
2023-07-16T13:46:10.648Z,44.01
2023-07-16T13:48:55.862Z,43.76
2023-07-16T13:51:24.799Z,42.42
2023-07-16T13:53:51.942Z,42.33
2023-07-16T13:56:19.637Z,41.96
2023-07-16T13:58:47.060Z,40.75
2023-07-16T14:01:14.257Z,40.92
2023-07-16T14:03:41.571Z,40.56
2023-07-16T14:06:08.914Z,40.80
2023-07-16T14:08:37.464Z,41.35
2023-07-16T14:11:06.020Z,42.65
2023-07-16T14:13:33.110Z,43.40
2023-07-16T14:16:00.285Z,41.87
2023-07-16T14:18:27.467Z,40.78
2023-07-16T14:20:54.778Z,41.41
2023-07-16T14:23:22.004Z,40.33
2023-07-16T14:25:49.074Z,41.25
2023-07-16T14:28:16.287Z,43.40
2023-07-16T14:30:43.352Z,44.50
2023-07-16T14:33:10.462Z,45.34
2023-07-16T14:35:38.666Z,43.89
2023-07-16T14:38:06.459Z,43.61
2023-07-16T14:40:33.761Z,42.73
2023-07-16T14:43:02.152Z,42.82
2023-07-16T14:45:29.390Z,43.32
2023-07-16T14:47:56.654Z,41.55
2023-07-16T14:50:24.974Z,41.59
2023-07-16T14:52:52.200Z,44.42
2023-07-16T14:55:19.647Z,44.94
2023-07-16T14:57:46.899Z,46.76
2023-07-16T15:00:15.295Z,46.43
2023-07-16T15:02:43.729Z,45.82
2023-07-16T15:05:11.252Z,45.44
2023-07-16T15:07:38.533Z,43.97
2023-07-16T15:10:06.137Z,43.54
2023-07-16T15:12:33.610Z,44.31
2023-07-16T15:15:01.616Z,48.53
2023-07-16T15:17:29.238Z,49.81
2023-07-16T15:19:56.429Z,48.22
2023-07-16T15:22:23.630Z,49.93
2023-07-16T15:24:51.475Z,47.44
2023-07-16T15:27:18.685Z,45.73
2023-07-16T15:29:45.808Z,45.77
2023-07-16T15:32:12.928Z,47.38
2023-07-16T15:34:40.086Z,48.79
2023-07-16T15:37:07.340Z,47.44
2023-07-16T15:39:35.128Z,49.01
2023-07-16T15:42:02.439Z,49.43
2023-07-16T15:44:29.507Z,51.22
2023-07-16T15:46:57.366Z,49.60
2023-07-16T15:49:24.605Z,50.70
2023-07-16T15:51:51.740Z,50.04
2023-07-16T15:54:19.145Z,49.80
2023-07-16T15:56:47.929Z,52.22
2023-07-16T15:59:15.253Z,50.14
2023-07-16T16:01:42.497Z,50.95
2023-07-16T16:04:09.672Z,51.04
2023-07-16T16:06:38.183Z,51.60
2023-07-16T16:09:06.916Z,51.46
2023-07-16T16:11:33.961Z,52.19
2023-07-16T16:14:01.094Z,52.79
2023-07-16T16:16:28.290Z,54.43
2023-07-16T16:18:55.891Z,54.72
2023-07-16T16:21:23.059Z,53.71
2023-07-16T16:23:50.254Z,51.33
2023-07-16T16:26:17.764Z,51.62
2023-07-16T16:28:45.133Z,53.07
2023-07-16T16:31:12.376Z,53.33
2023-07-16T16:33:39.624Z,53.37
2023-07-16T16:36:13.361Z,55.69
2023-07-16T16:38:42.564Z,56.78
2023-07-16T16:41:09.654Z,58.22
2023-07-16T16:43:36.990Z,57.86
2023-07-16T16:46:04.241Z,56.30
2023-07-16T16:48:32.368Z,54.99
2023-07-16T16:51:00.457Z,55.05
2023-07-16T16:53:27.729Z,56.42
2023-07-16T16:55:54.872Z,57.01
2023-07-16T16:58:22.475Z,55.72
2023-07-16T17:00:53.632Z,55.85
2023-07-16T17:03:20.790Z,55.98
2023-07-16T17:05:51.686Z,58.00
2023-07-16T17:08:18.840Z,59.05
2023-07-16T17:10:46.056Z,59.72
2023-07-16T17:13:13.235Z,59.00
2023-07-16T17:15:47.491Z,58.72
2023-07-16T17:18:15.005Z,59.15
2023-07-16T17:20:42.270Z,59.59
2023-07-16T17:23:13.131Z,59.57
2023-07-16T17:25:40.371Z,59.50
2023-07-16T17:28:07.423Z,59.86
2023-07-16T17:30:34.732Z,60.55
2023-07-16T17:33:01.942Z,61.56
2023-07-16T17:35:31.335Z,62.67
2023-07-16T17:37:58.441Z,63.43
2023-07-16T17:40:25.609Z,64.21
2023-07-16T17:42:54.892Z,65.06
2023-07-16T17:45:22.455Z,65.45
2023-07-16T17:47:49.663Z,66.38
2023-07-16T17:50:16.999Z,67.36
2023-07-16T17:52:44.179Z,68.14
2023-07-16T17:55:12.293Z,68.64
2023-07-16T17:57:39.690Z,69.39
2023-07-16T18:00:23.950Z,70.18
2023-07-16T18:02:54.655Z,70.94
2023-07-16T18:05:22.013Z,71.89
2023-07-16T18:07:51.995Z,72.21
2023-07-16T18:10:20.886Z,72.77
2023-07-16T18:12:49.805Z,73.51
2023-07-16T18:15:17.817Z,73.99
2023-07-16T18:17:48.049Z,74.62
2023-07-16T18:20:15.810Z,75.28
2023-07-16T18:22:43.676Z,75.01
2023-07-16T18:25:11.123Z,75.37
2023-07-16T18:27:39.959Z,75.68
2023-07-16T18:30:08.089Z,75.18
2023-07-16T18:32:35.313Z,74.72
2023-07-16T18:35:02.406Z,75.10
2023-07-16T18:37:29.523Z,75.48
2023-07-16T18:39:57.269Z,76.26
2023-07-16T18:42:26.372Z,77.21
2023-07-16T18:44:58.130Z,77.90
2023-07-16T18:47:25.472Z,78.88
2023-07-16T18:49:53.175Z,79.26
2023-07-16T18:52:21.331Z,79.57
2023-07-16T18:54:48.458Z,80.12
2023-07-16T18:57:17.320Z,80.45
2023-07-16T18:59:44.924Z,80.61
2023-07-16T19:02:12.073Z,81.17
2023-07-16T19:04:39.309Z,81.70
2023-07-16T19:07:06.930Z,81.07
2023-07-16T19:09:34.172Z,80.41
2023-07-16T19:12:01.508Z,79.53
2023-07-16T19:14:28.636Z,78.07
2023-07-16T19:16:55.817Z,76.97
2023-07-16T19:19:22.969Z,76.76
2023-07-16T19:21:50.013Z,76.86
2023-07-16T19:24:17.104Z,77.21
2023-07-16T19:26:44.284Z,77.29
2023-07-16T19:29:11.413Z,76.96
2023-07-16T19:31:38.997Z,76.25
2023-07-16T19:34:06.226Z,75.69
2023-07-16T19:36:33.385Z,74.41
2023-07-16T19:39:00.475Z,74.21
2023-07-16T19:41:27.912Z,74.50
2023-07-16T19:43:55.018Z,74.91
2023-07-16T19:46:22.107Z,74.24
2023-07-16T19:48:49.381Z,73.82
2023-07-16T19:51:16.975Z,73.82
2023-07-16T19:53:44.348Z,73.38
2023-07-16T19:56:12.140Z,72.60
2023-07-16T19:58:39.976Z,72.51
2023-07-16T20:01:08.223Z,72.60
2023-07-16T20:03:35.696Z,72.33
2023-07-16T20:06:07.312Z,71.83
2023-07-16T20:08:34.302Z,71.79
2023-07-16T20:11:01.381Z,71.95
2023-07-16T20:13:28.706Z,71.87
2023-07-16T20:15:56.867Z,72.40
2023-07-16T20:18:24.187Z,72.30
2023-07-16T20:20:53.690Z,72.13
2023-07-16T20:23:21.180Z,71.95
2023-07-16T20:25:48.329Z,71.55
2023-07-16T20:28:20.455Z,71.24
2023-07-16T20:30:48.388Z,71.05
2023-07-16T20:33:15.510Z,70.72
2023-07-16T20:35:43.576Z,70.64
2023-07-16T20:38:11.100Z,70.76
2023-07-16T20:40:38.170Z,70.60
2023-07-16T20:43:05.226Z,70.89
2023-07-16T20:45:32.375Z,70.79
2023-07-16T20:48:00.867Z,70.75
2023-07-16T20:50:28.682Z,70.90
2023-07-16T20:52:57.591Z,71.25
2023-07-16T20:55:24.785Z,71.53
2023-07-16T20:57:52.780Z,71.44
2023-07-16T21:00:22.337Z,71.44
2023-07-16T21:02:52.924Z,71.72
2023-07-16T21:05:20.176Z,72.00
2023-07-16T21:07:49.644Z,72.10
2023-07-16T21:10:16.854Z,72.40
2023-07-16T21:12:44.984Z,72.82
2023-07-16T21:15:13.461Z,73.19
2023-07-16T21:17:40.742Z,73.48
2023-07-16T21:20:10.906Z,73.76
2023-07-16T21:22:39.509Z,74.13
2023-07-16T21:25:07.094Z,74.79
2023-07-16T21:27:40.879Z,75.32
2023-07-16T21:30:08.819Z,75.34
2023-07-16T21:32:35.946Z,75.29
2023-07-16T21:35:03.075Z,75.36
2023-07-16T21:37:30.220Z,75.58
2023-07-16T21:39:57.220Z,75.90
2023-07-16T21:42:26.319Z,76.37
2023-07-16T21:44:53.542Z,76.57
2023-07-16T21:47:20.621Z,76.92
2023-07-16T21:49:47.897Z,77.30
2023-07-16T21:52:15.235Z,77.80
2023-07-16T21:54:43.274Z,78.26
2023-07-16T21:57:12.683Z,78.58
2023-07-16T21:59:39.749Z,78.79
2023-07-16T22:02:06.828Z,79.21
2023-07-16T22:04:33.917Z,79.26
2023-07-16T22:07:01.676Z,79.49
2023-07-16T22:09:28.960Z,79.72
2023-07-16T22:11:56.535Z,80.16
2023-07-16T22:14:23.696Z,79.81
2023-07-16T22:16:50.803Z,80.15
2023-07-16T22:19:31.629Z,79.94
2023-07-16T22:22:01.426Z,80.39
2023-07-16T22:24:29.394Z,80.88
2023-07-16T22:26:57.499Z,81.08
2023-07-16T22:29:26.330Z,81.66
2023-07-16T22:31:53.436Z,82.10
2023-07-16T22:34:21.704Z,82.39
2023-07-16T22:36:48.996Z,82.29
2023-07-16T22:39:16.089Z,82.45
2023-07-16T22:41:43.188Z,82.49
2023-07-16T22:44:10.209Z,82.88
2023-07-16T22:46:38.385Z,83.21
2023-07-16T22:49:08.139Z,82.92
2023-07-16T22:51:35.452Z,82.90
2023-07-16T22:54:04.119Z,83.30
2023-07-16T22:56:31.316Z,83.02
2023-07-16T22:58:58.419Z,83.33
2023-07-16T23:01:26.101Z,83.52
2023-07-16T23:03:53.227Z,83.33
2023-07-16T23:06:20.356Z,83.50
2023-07-16T23:08:47.493Z,83.85
2023-07-16T23:11:14.874Z,83.74
2023-07-16T23:13:42.071Z,84.16
2023-07-16T23:16:17.167Z,84.44
2023-07-16T23:18:44.320Z,84.80
2023-07-16T23:21:12.313Z,84.94
2023-07-16T23:23:39.373Z,85.09
2023-07-16T23:26:06.450Z,85.42
2023-07-16T23:28:33.715Z,85.46
2023-07-16T23:31:00.961Z,84.79
2023-07-16T23:33:29.220Z,85.05
2023-07-16T23:35:57.314Z,85.19
2023-07-16T23:38:24.432Z,85.14
2023-07-16T23:40:51.502Z,85.35
2023-07-16T23:43:18.559Z,85.34
2023-07-16T23:45:45.614Z,84.80
2023-07-16T23:48:12.666Z,84.70
2023-07-16T23:50:41.670Z,84.66
2023-07-16T23:53:08.765Z,85.05
2023-07-16T23:55:35.870Z,85.20
2023-07-16T23:58:03.143Z,85.64
